sensor_id;sensor_type;location;lat;lon;timestamp;P1;durP1;ratioP1;P2;durP2;ratioP2
80111;SDS011;69421;51.062;3.728;2024-03-08T00:01:19;20.90;;;10.65;;
80111;SDS011;69421;51.062;3.728;2024-03-08T00:28:35;22.35;;;10.65;;
80111;SDS011;69421;51.062;3.728;2024-03-08T00:31:46;20.23;;;10.52;;
80111;SDS011;69421;51.062;3.728;2024-03-08T00:35:10;21.85;;;12.15;;
80111;SDS011;69421;51.062;3.728;2024-03-08T00:37:58;20.73;;;12.00;;
80111;SDS011;69421;51.062;3.728;2024-03-08T00:41:00;20.48;;;11.10;;
80111;SDS011;69421;51.062;3.728;2024-03-08T02:01:21;28.38;;;14.45;;
80111;SDS011;69421;51.062;3.728;2024-03-08T02:04:48;31.30;;;16.98;;
80111;SDS011;69421;51.062;3.728;2024-03-08T02:07:58;29.98;;;15.25;;
80111;SDS011;69421;51.062;3.728;2024-03-08T02:28:35;33.63;;;16.52;;
80111;SDS011;69421;51.062;3.728;2024-03-08T02:31:53;30.00;;;15.18;;
80111;SDS011;69421;51.062;3.728;2024-03-08T02:34:46;27.98;;;15.70;;
80111;SDS011;69421;51.062;3.728;2024-03-08T02:37:28;27.10;;;15.25;;
80111;SDS011;69421;51.062;3.728;2024-03-08T02:40:30;33.28;;;16.45;;
80111;SDS011;69421;51.062;3.728;2024-03-08T02:47:08;25.70;;;14.32;;
80111;SDS011;69421;51.062;3.728;2024-03-08T02:54:06;29.38;;;17.40;;
80111;SDS011;69421;51.062;3.728;2024-03-08T03:04:22;26.33;;;15.20;;
80111;SDS011;69421;51.062;3.728;2024-03-08T03:25:09;26.30;;;16.30;;
80111;SDS011;69421;51.062;3.728;2024-03-08T03:27:34;29.15;;;16.83;;
80111;SDS011;69421;51.062;3.728;2024-03-08T03:30:01;25.60;;;15.50;;
80111;SDS011;69421;51.062;3.728;2024-03-08T03:32:46;29.17;;;17.15;;
80111;SDS011;69421;51.062;3.728;2024-03-08T03:35:13;28.38;;;16.40;;
80111;SDS011;69421;51.062;3.728;2024-03-08T03:37:40;30.27;;;16.13;;
80111;SDS011;69421;51.062;3.728;2024-03-08T03:40:08;25.40;;;15.52;;
80111;SDS011;69421;51.062;3.728;2024-03-08T03:42:34;29.92;;;17.50;;
80111;SDS011;69421;51.062;3.728;2024-03-08T03:45:00;27.90;;;16.70;;
80111;SDS011;69421;51.062;3.728;2024-03-08T03:47:29;30.35;;;18.15;;
80111;SDS011;69421;51.062;3.728;2024-03-08T03:49:54;23.88;;;16.60;;
80111;SDS011;69421;51.062;3.728;2024-03-08T03:52:20;23.75;;;15.35;;
80111;SDS011;69421;51.062;3.728;2024-03-08T03:54:46;28.25;;;17.67;;
80111;SDS011;69421;51.062;3.728;2024-03-08T03:57:12;31.23;;;19.23;;
80111;SDS011;69421;51.062;3.728;2024-03-08T03:59:38;30.55;;;17.48;;
80111;SDS011;69421;51.062;3.728;2024-03-08T04:02:04;27.65;;;18.45;;
80111;SDS011;69421;51.062;3.728;2024-03-08T04:04:30;32.40;;;17.63;;
80111;SDS011;69421;51.062;3.728;2024-03-08T04:06:56;30.90;;;18.63;;
80111;SDS011;69421;51.062;3.728;2024-03-08T04:09:23;30.73;;;17.35;;
80111;SDS011;69421;51.062;3.728;2024-03-08T04:11:49;25.75;;;16.02;;
80111;SDS011;69421;51.062;3.728;2024-03-08T04:14:18;26.05;;;15.10;;
80111;SDS011;69421;51.062;3.728;2024-03-08T04:16:43;29.02;;;17.88;;
80111;SDS011;69421;51.062;3.728;2024-03-08T04:19:09;26.00;;;15.98;;
80111;SDS011;69421;51.062;3.728;2024-03-08T04:21:35;22.55;;;14.35;;
80111;SDS011;69421;51.062;3.728;2024-03-08T04:24:01;29.30;;;18.08;;
80111;SDS011;69421;51.062;3.728;2024-03-08T04:26:26;29.60;;;16.63;;
80111;SDS011;69421;51.062;3.728;2024-03-08T04:28:52;26.08;;;16.50;;
80111;SDS011;69421;51.062;3.728;2024-03-08T04:31:18;22.67;;;16.10;;
80111;SDS011;69421;51.062;3.728;2024-03-08T04:33:43;24.60;;;15.25;;
80111;SDS011;69421;51.062;3.728;2024-03-08T04:36:09;25.88;;;16.77;;
80111;SDS011;69421;51.062;3.728;2024-03-08T04:38:38;29.13;;;19.02;;
80111;SDS011;69421;51.062;3.728;2024-03-08T04:41:06;28.85;;;18.98;;
80111;SDS011;69421;51.062;3.728;2024-03-08T04:43:32;28.20;;;19.40;;
80111;SDS011;69421;51.062;3.728;2024-03-08T04:45:59;28.05;;;16.17;;
80111;SDS011;69421;51.062;3.728;2024-03-08T04:48:24;32.63;;;18.55;;
80111;SDS011;69421;51.062;3.728;2024-03-08T04:50:53;24.35;;;14.38;;
80111;SDS011;69421;51.062;3.728;2024-03-08T04:53:20;29.55;;;18.20;;
80111;SDS011;69421;51.062;3.728;2024-03-08T04:55:46;25.58;;;15.90;;
80111;SDS011;69421;51.062;3.728;2024-03-08T04:58:12;26.58;;;17.77;;
80111;SDS011;69421;51.062;3.728;2024-03-08T05:00:38;24.92;;;14.77;;
80111;SDS011;69421;51.062;3.728;2024-03-08T05:03:03;23.65;;;15.48;;
80111;SDS011;69421;51.062;3.728;2024-03-08T05:05:30;28.55;;;17.00;;
80111;SDS011;69421;51.062;3.728;2024-03-08T05:07:56;26.92;;;17.58;;
80111;SDS011;69421;51.062;3.728;2024-03-08T05:10:21;28.40;;;18.23;;
80111;SDS011;69421;51.062;3.728;2024-03-08T05:12:47;26.20;;;16.60;;
80111;SDS011;69421;51.062;3.728;2024-03-08T05:15:13;22.83;;;17.17;;
80111;SDS011;69421;51.062;3.728;2024-03-08T05:17:39;28.73;;;17.50;;
80111;SDS011;69421;51.062;3.728;2024-03-08T05:20:05;27.08;;;14.73;;
80111;SDS011;69421;51.062;3.728;2024-03-08T05:22:36;27.20;;;16.30;;
80111;SDS011;69421;51.062;3.728;2024-03-08T05:25:02;28.63;;;17.80;;
80111;SDS011;69421;51.062;3.728;2024-03-08T05:27:28;29.25;;;16.08;;
80111;SDS011;69421;51.062;3.728;2024-03-08T05:29:53;24.15;;;15.57;;
80111;SDS011;69421;51.062;3.728;2024-03-08T05:32:19;29.35;;;16.05;;
80111;SDS011;69421;51.062;3.728;2024-03-08T05:34:45;26.30;;;18.40;;
80111;SDS011;69421;51.062;3.728;2024-03-08T05:37:11;31.10;;;18.10;;
80111;SDS011;69421;51.062;3.728;2024-03-08T05:39:36;27.40;;;16.23;;
80111;SDS011;69421;51.062;3.728;2024-03-08T05:42:02;29.88;;;17.88;;
80111;SDS011;69421;51.062;3.728;2024-03-08T05:44:30;33.08;;;19.75;;
80111;SDS011;69421;51.062;3.728;2024-03-08T05:46:56;26.67;;;16.75;;
80111;SDS011;69421;51.062;3.728;2024-03-08T05:49:22;23.85;;;16.40;;
80111;SDS011;69421;51.062;3.728;2024-03-08T05:51:50;27.50;;;18.30;;
80111;SDS011;69421;51.062;3.728;2024-03-08T05:54:16;24.90;;;15.35;;
80111;SDS011;69421;51.062;3.728;2024-03-08T05:56:42;24.80;;;17.23;;
80111;SDS011;69421;51.062;3.728;2024-03-08T05:59:09;26.33;;;17.70;;
80111;SDS011;69421;51.062;3.728;2024-03-08T06:01:35;26.98;;;15.38;;
80111;SDS011;69421;51.062;3.728;2024-03-08T06:04:01;27.52;;;18.30;;
80111;SDS011;69421;51.062;3.728;2024-03-08T06:06:28;29.02;;;16.45;;
80111;SDS011;69421;51.062;3.728;2024-03-08T06:08:53;28.33;;;17.58;;
80111;SDS011;69421;51.062;3.728;2024-03-08T06:11:21;28.35;;;17.83;;
80111;SDS011;69421;51.062;3.728;2024-03-08T06:13:47;24.95;;;16.58;;
80111;SDS011;69421;51.062;3.728;2024-03-08T06:16:15;31.52;;;19.95;;
80111;SDS011;69421;51.062;3.728;2024-03-08T06:18:40;29.95;;;17.98;;
80111;SDS011;69421;51.062;3.728;2024-03-08T06:21:06;28.05;;;17.77;;
80111;SDS011;69421;51.062;3.728;2024-03-08T06:23:34;32.83;;;20.33;;
80111;SDS011;69421;51.062;3.728;2024-03-08T06:26:06;28.67;;;16.92;;
80111;SDS011;69421;51.062;3.728;2024-03-08T06:28:32;26.17;;;18.40;;
80111;SDS011;69421;51.062;3.728;2024-03-08T06:30:59;26.27;;;16.10;;
80111;SDS011;69421;51.062;3.728;2024-03-08T06:33:25;24.40;;;15.75;;
80111;SDS011;69421;51.062;3.728;2024-03-08T06:35:52;27.30;;;17.05;;
80111;SDS011;69421;51.062;3.728;2024-03-08T06:38:19;31.02;;;16.65;;
80111;SDS011;69421;51.062;3.728;2024-03-08T06:40:45;28.80;;;18.50;;
80111;SDS011;69421;51.062;3.728;2024-03-08T06:43:13;29.25;;;17.42;;
80111;SDS011;69421;51.062;3.728;2024-03-08T06:45:50;29.92;;;16.85;;
80111;SDS011;69421;51.062;3.728;2024-03-08T06:48:16;27.75;;;16.38;;
80111;SDS011;69421;51.062;3.728;2024-03-08T06:50:48;26.00;;;17.70;;
80111;SDS011;69421;51.062;3.728;2024-03-08T06:53:13;25.35;;;15.82;;
80111;SDS011;69421;51.062;3.728;2024-03-08T06:55:39;30.33;;;18.52;;
80111;SDS011;69421;51.062;3.728;2024-03-08T06:58:05;25.50;;;15.98;;
80111;SDS011;69421;51.062;3.728;2024-03-08T07:00:36;28.67;;;18.55;;
80111;SDS011;69421;51.062;3.728;2024-03-08T07:03:02;27.77;;;16.52;;
80111;SDS011;69421;51.062;3.728;2024-03-08T07:05:28;27.08;;;16.08;;
80111;SDS011;69421;51.062;3.728;2024-03-08T07:07:54;28.17;;;18.25;;
80111;SDS011;69421;51.062;3.728;2024-03-08T07:10:21;27.23;;;15.52;;
80111;SDS011;69421;51.062;3.728;2024-03-08T07:12:49;25.40;;;15.10;;
80111;SDS011;69421;51.062;3.728;2024-03-08T07:15:15;25.08;;;15.40;;
80111;SDS011;69421;51.062;3.728;2024-03-08T07:17:41;24.30;;;14.95;;
80111;SDS011;69421;51.062;3.728;2024-03-08T07:20:11;26.80;;;16.10;;
80111;SDS011;69421;51.062;3.728;2024-03-08T07:22:38;25.33;;;16.02;;
80111;SDS011;69421;51.062;3.728;2024-03-08T07:25:05;20.52;;;13.98;;
80111;SDS011;69421;51.062;3.728;2024-03-08T07:30:18;20.98;;;15.13;;
80111;SDS011;69421;51.062;3.728;2024-03-08T07:33:03;26.17;;;15.40;;
80111;SDS011;69421;51.062;3.728;2024-03-08T07:35:29;22.33;;;14.35;;
80111;SDS011;69421;51.062;3.728;2024-03-08T07:37:56;25.17;;;15.88;;
80111;SDS011;69421;51.062;3.728;2024-03-08T07:40:23;22.13;;;14.65;;
80111;SDS011;69421;51.062;3.728;2024-03-08T07:42:51;22.70;;;13.68;;
80111;SDS011;69421;51.062;3.728;2024-03-08T07:45:17;24.10;;;14.38;;
80111;SDS011;69421;51.062;3.728;2024-03-08T07:47:43;23.73;;;14.93;;
80111;SDS011;69421;51.062;3.728;2024-03-08T07:50:09;25.88;;;14.63;;
80111;SDS011;69421;51.062;3.728;2024-03-08T07:52:35;22.88;;;14.50;;
80111;SDS011;69421;51.062;3.728;2024-03-08T07:55:01;24.88;;;14.38;;
80111;SDS011;69421;51.062;3.728;2024-03-08T07:57:29;20.92;;;13.27;;
80111;SDS011;69421;51.062;3.728;2024-03-08T07:59:55;24.15;;;15.77;;
80111;SDS011;69421;51.062;3.728;2024-03-08T08:02:21;21.90;;;13.93;;
80111;SDS011;69421;51.062;3.728;2024-03-08T08:04:47;24.65;;;13.27;;
80111;SDS011;69421;51.062;3.728;2024-03-08T08:07:12;26.33;;;14.65;;
80111;SDS011;69421;51.062;3.728;2024-03-08T08:09:39;20.13;;;13.02;;
80111;SDS011;69421;51.062;3.728;2024-03-08T08:12:08;24.27;;;14.18;;
80111;SDS011;69421;51.062;3.728;2024-03-08T08:14:37;18.90;;;11.82;;
80111;SDS011;69421;51.062;3.728;2024-03-08T08:17:06;24.00;;;14.52;;
80111;SDS011;69421;51.062;3.728;2024-03-08T08:19:34;24.55;;;15.45;;
80111;SDS011;69421;51.062;3.728;2024-03-08T08:22:03;25.13;;;14.43;;
80111;SDS011;69421;51.062;3.728;2024-03-08T08:24:29;22.52;;;13.18;;
80111;SDS011;69421;51.062;3.728;2024-03-08T08:26:55;23.55;;;13.48;;
80111;SDS011;69421;51.062;3.728;2024-03-08T08:29:21;25.88;;;15.55;;
80111;SDS011;69421;51.062;3.728;2024-03-08T08:31:47;22.15;;;13.30;;
80111;SDS011;69421;51.062;3.728;2024-03-08T08:34:15;22.17;;;13.07;;
80111;SDS011;69421;51.062;3.728;2024-03-08T08:36:44;20.42;;;12.88;;
80111;SDS011;69421;51.062;3.728;2024-03-08T08:39:10;22.27;;;14.02;;
80111;SDS011;69421;51.062;3.728;2024-03-08T08:41:39;23.40;;;15.13;;
80111;SDS011;69421;51.062;3.728;2024-03-08T08:44:07;19.98;;;14.95;;
80111;SDS011;69421;51.062;3.728;2024-03-08T08:46:38;21.58;;;13.73;;
80111;SDS011;69421;51.062;3.728;2024-03-08T08:49:04;20.10;;;12.45;;
80111;SDS011;69421;51.062;3.728;2024-03-08T08:51:31;22.77;;;14.18;;
80111;SDS011;69421;51.062;3.728;2024-03-08T08:53:59;23.00;;;14.07;;
80111;SDS011;69421;51.062;3.728;2024-03-08T08:56:24;19.20;;;12.27;;
80111;SDS011;69421;51.062;3.728;2024-03-08T08:58:51;20.08;;;13.63;;
80111;SDS011;69421;51.062;3.728;2024-03-08T09:01:18;21.00;;;13.02;;
80111;SDS011;69421;51.062;3.728;2024-03-08T09:03:44;20.23;;;13.95;;
80111;SDS011;69421;51.062;3.728;2024-03-08T09:06:12;17.70;;;12.05;;
80111;SDS011;69421;51.062;3.728;2024-03-08T09:08:41;22.17;;;13.02;;
80111;SDS011;69421;51.062;3.728;2024-03-08T09:11:09;20.45;;;12.50;;
80111;SDS011;69421;51.062;3.728;2024-03-08T09:13:35;19.25;;;12.52;;
80111;SDS011;69421;51.062;3.728;2024-03-08T09:16:02;19.98;;;11.48;;
80111;SDS011;69421;51.062;3.728;2024-03-08T09:18:30;20.30;;;12.10;;
80111;SDS011;69421;51.062;3.728;2024-03-08T09:20:57;20.13;;;13.35;;
80111;SDS011;69421;51.062;3.728;2024-03-08T09:23:23;20.40;;;12.57;;
80111;SDS011;69421;51.062;3.728;2024-03-08T09:25:50;20.00;;;12.32;;
80111;SDS011;69421;51.062;3.728;2024-03-08T09:28:16;20.08;;;11.88;;
80111;SDS011;69421;51.062;3.728;2024-03-08T09:30:42;19.98;;;13.35;;
80111;SDS011;69421;51.062;3.728;2024-03-08T09:33:09;20.60;;;12.80;;
80111;SDS011;69421;51.062;3.728;2024-03-08T09:35:36;18.35;;;13.07;;
80111;SDS011;69421;51.062;3.728;2024-03-08T09:38:02;18.63;;;11.88;;
80111;SDS011;69421;51.062;3.728;2024-03-08T09:40:30;17.85;;;11.98;;
80111;SDS011;69421;51.062;3.728;2024-03-08T09:42:55;20.42;;;12.05;;
80111;SDS011;69421;51.062;3.728;2024-03-08T09:45:22;16.02;;;10.35;;
80111;SDS011;69421;51.062;3.728;2024-03-08T09:47:50;17.52;;;12.25;;
80111;SDS011;69421;51.062;3.728;2024-03-08T09:50:16;17.38;;;11.30;;
80111;SDS011;69421;51.062;3.728;2024-03-08T09:52:43;17.75;;;12.57;;
80111;SDS011;69421;51.062;3.728;2024-03-08T09:55:12;19.80;;;11.48;;
80111;SDS011;69421;51.062;3.728;2024-03-08T09:57:38;18.95;;;11.40;;
80111;SDS011;69421;51.062;3.728;2024-03-08T10:00:05;16.65;;;10.88;;
80111;SDS011;69421;51.062;3.728;2024-03-08T10:02:46;18.10;;;11.10;;
80111;SDS011;69421;51.062;3.728;2024-03-08T10:05:13;17.67;;;12.38;;
80111;SDS011;69421;51.062;3.728;2024-03-08T10:07:39;16.75;;;11.88;;
80111;SDS011;69421;51.062;3.728;2024-03-08T10:10:05;18.83;;;11.98;;
80111;SDS011;69421;51.062;3.728;2024-03-08T10:12:34;17.33;;;10.88;;
80111;SDS011;69421;51.062;3.728;2024-03-08T10:15:00;16.25;;;11.30;;
80111;SDS011;69421;51.062;3.728;2024-03-08T10:17:26;17.67;;;11.23;;
80111;SDS011;69421;51.062;3.728;2024-03-08T10:19:57;19.67;;;11.70;;
80111;SDS011;69421;51.062;3.728;2024-03-08T10:22:25;18.35;;;12.18;;
80111;SDS011;69421;51.062;3.728;2024-03-08T10:24:51;17.50;;;13.20;;
80111;SDS011;69421;51.062;3.728;2024-03-08T10:27:17;18.33;;;11.25;;
80111;SDS011;69421;51.062;3.728;2024-03-08T10:29:43;17.05;;;10.50;;
80111;SDS011;69421;51.062;3.728;2024-03-08T10:32:13;17.30;;;11.35;;
80111;SDS011;69421;51.062;3.728;2024-03-08T10:34:38;18.35;;;10.90;;
80111;SDS011;69421;51.062;3.728;2024-03-08T10:37:06;16.58;;;11.45;;
80111;SDS011;69421;51.062;3.728;2024-03-08T10:39:36;16.83;;;11.00;;
80111;SDS011;69421;51.062;3.728;2024-03-08T10:50:07;16.38;;;11.23;;
80111;SDS011;69421;51.062;3.728;2024-03-08T10:52:34;15.60;;;12.15;;
80111;SDS011;69421;51.062;3.728;2024-03-08T10:55:01;17.02;;;11.18;;
80111;SDS011;69421;51.062;3.728;2024-03-08T10:57:27;17.02;;;11.23;;
80111;SDS011;69421;51.062;3.728;2024-03-08T10:59:53;16.75;;;9.80;;
80111;SDS011;69421;51.062;3.728;2024-03-08T11:02:19;15.77;;;9.98;;
80111;SDS011;69421;51.062;3.728;2024-03-08T11:04:48;17.02;;;11.40;;
80111;SDS011;69421;51.062;3.728;2024-03-08T11:07:15;16.15;;;10.95;;
80111;SDS011;69421;51.062;3.728;2024-03-08T11:09:45;17.02;;;10.77;;
80111;SDS011;69421;51.062;3.728;2024-03-08T11:12:20;16.85;;;11.25;;
80111;SDS011;69421;51.062;3.728;2024-03-08T11:15:00;14.27;;;9.82;;
80111;SDS011;69421;51.062;3.728;2024-03-08T11:19:59;17.67;;;11.10;;
80111;SDS011;69421;51.062;3.728;2024-03-08T11:22:33;14.95;;;11.00;;
80111;SDS011;69421;51.062;3.728;2024-03-08T11:25:01;16.08;;;10.15;;
80111;SDS011;69421;51.062;3.728;2024-03-08T11:27:37;14.48;;;9.52;;
80111;SDS011;69421;51.062;3.728;2024-03-08T11:30:04;16.00;;;11.27;;
80111;SDS011;69421;51.062;3.728;2024-03-08T11:32:36;14.90;;;10.05;;
80111;SDS011;69421;51.062;3.728;2024-03-08T11:35:07;15.30;;;10.77;;
80111;SDS011;69421;51.062;3.728;2024-03-08T11:37:34;19.70;;;11.88;;
80111;SDS011;69421;51.062;3.728;2024-03-08T11:40:01;15.05;;;9.38;;
80111;SDS011;69421;51.062;3.728;2024-03-08T11:42:29;17.13;;;10.90;;
80111;SDS011;69421;51.062;3.728;2024-03-08T11:44:56;17.40;;;11.02;;
80111;SDS011;69421;51.062;3.728;2024-03-08T11:47:23;16.80;;;11.05;;
80111;SDS011;69421;51.062;3.728;2024-03-08T11:49:51;14.18;;;10.38;;
80111;SDS011;69421;51.062;3.728;2024-03-08T11:52:18;15.75;;;9.57;;
80111;SDS011;69421;51.062;3.728;2024-03-08T11:54:48;16.45;;;11.32;;
80111;SDS011;69421;51.062;3.728;2024-03-08T11:57:19;17.88;;;11.43;;
80111;SDS011;69421;51.062;3.728;2024-03-08T11:59:53;16.98;;;11.18;;
80111;SDS011;69421;51.062;3.728;2024-03-08T12:02:22;14.35;;;10.68;;
80111;SDS011;69421;51.062;3.728;2024-03-08T12:04:55;15.85;;;11.30;;
80111;SDS011;69421;51.062;3.728;2024-03-08T12:07:25;15.00;;;11.07;;
80111;SDS011;69421;51.062;3.728;2024-03-08T12:12:44;11.57;;;8.90;;
80111;SDS011;69421;51.062;3.728;2024-03-08T12:15:12;15.43;;;11.00;;
80111;SDS011;69421;51.062;3.728;2024-03-08T12:17:38;16.40;;;10.82;;
80111;SDS011;69421;51.062;3.728;2024-03-08T12:20:11;14.70;;;10.63;;
80111;SDS011;69421;51.062;3.728;2024-03-08T12:22:44;14.27;;;9.32;;
80111;SDS011;69421;51.062;3.728;2024-03-08T12:25:13;16.67;;;9.85;;
80111;SDS011;69421;51.062;3.728;2024-03-08T12:27:39;15.70;;;11.02;;
80111;SDS011;69421;51.062;3.728;2024-03-08T12:30:24;15.15;;;10.15;;
80111;SDS011;69421;51.062;3.728;2024-03-08T12:32:55;15.63;;;9.50;;
80111;SDS011;69421;51.062;3.728;2024-03-08T12:35:22;14.80;;;10.48;;
80111;SDS011;69421;51.062;3.728;2024-03-08T12:37:50;16.02;;;10.93;;
80111;SDS011;69421;51.062;3.728;2024-03-08T12:40:18;17.83;;;11.25;;
80111;SDS011;69421;51.062;3.728;2024-03-08T12:42:45;15.88;;;12.25;;
80111;SDS011;69421;51.062;3.728;2024-03-08T12:45:14;17.55;;;11.48;;
80111;SDS011;69421;51.062;3.728;2024-03-08T12:47:40;15.82;;;10.40;;
80111;SDS011;69421;51.062;3.728;2024-03-08T12:50:07;15.80;;;9.65;;
80111;SDS011;69421;51.062;3.728;2024-03-08T12:52:34;14.98;;;11.20;;
80111;SDS011;69421;51.062;3.728;2024-03-08T12:55:01;13.70;;;9.60;;
80111;SDS011;69421;51.062;3.728;2024-03-08T12:57:28;14.82;;;10.55;;
80111;SDS011;69421;51.062;3.728;2024-03-08T12:59:54;14.05;;;9.82;;
80111;SDS011;69421;51.062;3.728;2024-03-08T13:02:20;14.38;;;8.73;;
80111;SDS011;69421;51.062;3.728;2024-03-08T13:04:46;15.00;;;9.48;;
80111;SDS011;69421;51.062;3.728;2024-03-08T13:07:20;14.15;;;9.88;;
80111;SDS011;69421;51.062;3.728;2024-03-08T13:09:48;16.58;;;10.82;;
80111;SDS011;69421;51.062;3.728;2024-03-08T13:12:14;13.45;;;9.88;;
80111;SDS011;69421;51.062;3.728;2024-03-08T13:14:40;15.43;;;10.15;;
80111;SDS011;69421;51.062;3.728;2024-03-08T13:17:06;16.02;;;9.68;;
80111;SDS011;69421;51.062;3.728;2024-03-08T13:19:36;14.60;;;9.95;;
80111;SDS011;69421;51.062;3.728;2024-03-08T13:22:03;13.55;;;8.80;;
80111;SDS011;69421;51.062;3.728;2024-03-08T13:24:30;13.77;;;9.45;;
80111;SDS011;69421;51.062;3.728;2024-03-08T13:26:56;12.23;;;10.70;;
80111;SDS011;69421;51.062;3.728;2024-03-08T13:29:22;16.05;;;9.25;;
80111;SDS011;69421;51.062;3.728;2024-03-08T13:31:48;15.30;;;9.50;;
80111;SDS011;69421;51.062;3.728;2024-03-08T13:36:43;15.13;;;8.63;;
80111;SDS011;69421;51.062;3.728;2024-03-08T13:39:10;11.20;;;7.70;;
80111;SDS011;69421;51.062;3.728;2024-03-08T13:41:46;12.57;;;9.82;;
80111;SDS011;69421;51.062;3.728;2024-03-08T13:44:12;13.23;;;9.85;;
80111;SDS011;69421;51.062;3.728;2024-03-08T13:46:37;13.13;;;8.75;;
80111;SDS011;69421;51.062;3.728;2024-03-08T13:49:05;13.30;;;9.52;;
80111;SDS011;69421;51.062;3.728;2024-03-08T13:51:33;13.27;;;8.60;;
80111;SDS011;69421;51.062;3.728;2024-03-08T13:53:59;12.95;;;8.98;;
80111;SDS011;69421;51.062;3.728;2024-03-08T13:56:26;12.68;;;10.20;;
80111;SDS011;69421;51.062;3.728;2024-03-08T13:58:52;13.20;;;9.20;;
80111;SDS011;69421;51.062;3.728;2024-03-08T14:01:21;13.07;;;9.27;;
80111;SDS011;69421;51.062;3.728;2024-03-08T14:03:47;13.55;;;8.38;;
80111;SDS011;69421;51.062;3.728;2024-03-08T14:06:13;12.00;;;8.38;;
80111;SDS011;69421;51.062;3.728;2024-03-08T14:08:39;14.48;;;8.57;;
80111;SDS011;69421;51.062;3.728;2024-03-08T14:11:05;19.33;;;8.18;;
80111;SDS011;69421;51.062;3.728;2024-03-08T14:13:45;13.13;;;8.77;;
80111;SDS011;69421;51.062;3.728;2024-03-08T14:16:11;12.23;;;8.15;;
80111;SDS011;69421;51.062;3.728;2024-03-08T14:18:40;14.27;;;8.95;;
80111;SDS011;69421;51.062;3.728;2024-03-08T14:21:06;14.55;;;8.85;;
80111;SDS011;69421;51.062;3.728;2024-03-08T14:23:35;15.43;;;9.55;;
80111;SDS011;69421;51.062;3.728;2024-03-08T14:26:05;11.45;;;7.57;;
80111;SDS011;69421;51.062;3.728;2024-03-08T14:28:32;14.95;;;7.75;;
80111;SDS011;69421;51.062;3.728;2024-03-08T14:30:58;12.60;;;8.00;;
80111;SDS011;69421;51.062;3.728;2024-03-08T14:33:24;12.45;;;8.90;;
80111;SDS011;69421;51.062;3.728;2024-03-08T14:35:50;14.20;;;9.40;;
80111;SDS011;69421;51.062;3.728;2024-03-08T14:38:16;10.52;;;7.72;;
80111;SDS011;69421;51.062;3.728;2024-03-08T14:40:42;14.60;;;9.07;;
80111;SDS011;69421;51.062;3.728;2024-03-08T14:43:12;13.23;;;8.48;;
80111;SDS011;69421;51.062;3.728;2024-03-08T14:45:41;14.38;;;8.77;;
80111;SDS011;69421;51.062;3.728;2024-03-08T14:48:07;12.90;;;8.32;;
80111;SDS011;69421;51.062;3.728;2024-03-08T14:50:33;12.68;;;8.68;;
80111;SDS011;69421;51.062;3.728;2024-03-08T14:52:59;14.60;;;8.68;;
80111;SDS011;69421;51.062;3.728;2024-03-08T14:55:25;15.70;;;9.40;;
80111;SDS011;69421;51.062;3.728;2024-03-08T14:57:51;15.95;;;9.40;;
80111;SDS011;69421;51.062;3.728;2024-03-08T15:00:18;13.27;;;9.23;;
80111;SDS011;69421;51.062;3.728;2024-03-08T15:02:59;14.23;;;8.82;;
80111;SDS011;69421;51.062;3.728;2024-03-08T15:05:25;15.68;;;9.65;;
80111;SDS011;69421;51.062;3.728;2024-03-08T15:07:57;13.95;;;8.88;;
80111;SDS011;69421;51.062;3.728;2024-03-08T15:10:26;14.35;;;8.48;;
80111;SDS011;69421;51.062;3.728;2024-03-08T15:12:54;14.07;;;8.93;;
80111;SDS011;69421;51.062;3.728;2024-03-08T15:15:21;13.40;;;8.85;;
80111;SDS011;69421;51.062;3.728;2024-03-08T15:17:49;14.43;;;8.85;;
80111;SDS011;69421;51.062;3.728;2024-03-08T15:20:16;11.60;;;8.30;;
80111;SDS011;69421;51.062;3.728;2024-03-08T15:22:49;12.43;;;8.93;;
80111;SDS011;69421;51.062;3.728;2024-03-08T15:25:16;13.35;;;9.27;;
80111;SDS011;69421;51.062;3.728;2024-03-08T15:30:14;16.55;;;9.45;;
80111;SDS011;69421;51.062;3.728;2024-03-08T15:32:48;14.07;;;9.02;;
80111;SDS011;69421;51.062;3.728;2024-03-08T15:35:21;14.20;;;9.20;;
80111;SDS011;69421;51.062;3.728;2024-03-08T15:37:48;11.45;;;8.13;;
80111;SDS011;69421;51.062;3.728;2024-03-08T15:40:13;13.60;;;9.13;;
80111;SDS011;69421;51.062;3.728;2024-03-08T15:45:19;11.57;;;8.50;;
80111;SDS011;69421;51.062;3.728;2024-03-08T15:47:45;12.18;;;8.15;;
80111;SDS011;69421;51.062;3.728;2024-03-08T15:50:11;17.73;;;10.57;;
80111;SDS011;69421;51.062;3.728;2024-03-08T15:52:39;14.60;;;8.10;;
80111;SDS011;69421;51.062;3.728;2024-03-08T15:55:08;14.25;;;9.57;;
80111;SDS011;69421;51.062;3.728;2024-03-08T15:57:34;14.95;;;9.00;;
80111;SDS011;69421;51.062;3.728;2024-03-08T16:00:04;13.57;;;8.77;;
80111;SDS011;69421;51.062;3.728;2024-03-08T16:02:41;14.32;;;9.75;;
80111;SDS011;69421;51.062;3.728;2024-03-08T16:05:07;15.70;;;8.88;;
80111;SDS011;69421;51.062;3.728;2024-03-08T16:07:33;14.30;;;9.73;;
80111;SDS011;69421;51.062;3.728;2024-03-08T16:09:58;12.30;;;8.90;;
80111;SDS011;69421;51.062;3.728;2024-03-08T16:12:24;13.18;;;9.68;;
80111;SDS011;69421;51.062;3.728;2024-03-08T16:14:50;17.27;;;9.75;;
80111;SDS011;69421;51.062;3.728;2024-03-08T16:17:16;19.80;;;11.13;;
80111;SDS011;69421;51.062;3.728;2024-03-08T16:19:42;14.80;;;9.70;;
80111;SDS011;69421;51.062;3.728;2024-03-08T16:22:09;15.20;;;9.48;;
80111;SDS011;69421;51.062;3.728;2024-03-08T16:24:34;12.68;;;8.73;;
80111;SDS011;69421;51.062;3.728;2024-03-08T16:27:02;12.05;;;8.05;;
80111;SDS011;69421;51.062;3.728;2024-03-08T16:29:29;13.60;;;8.70;;
80111;SDS011;69421;51.062;3.728;2024-03-08T16:31:56;13.70;;;9.52;;
80111;SDS011;69421;51.062;3.728;2024-03-08T16:34:23;16.20;;;10.52;;
80111;SDS011;69421;51.062;3.728;2024-03-08T16:36:49;15.00;;;9.90;;
80111;SDS011;69421;51.062;3.728;2024-03-08T16:39:17;14.30;;;9.55;;
80111;SDS011;69421;51.062;3.728;2024-03-08T16:41:43;13.32;;;8.82;;
80111;SDS011;69421;51.062;3.728;2024-03-08T16:44:08;13.30;;;9.30;;
80111;SDS011;69421;51.062;3.728;2024-03-08T16:46:34;13.13;;;8.35;;
80111;SDS011;69421;51.062;3.728;2024-03-08T16:49:00;15.63;;;9.25;;
80111;SDS011;69421;51.062;3.728;2024-03-08T16:51:30;14.43;;;8.07;;
80111;SDS011;69421;51.062;3.728;2024-03-08T16:53:57;17.17;;;8.93;;
80111;SDS011;69421;51.062;3.728;2024-03-08T16:56:22;12.50;;;8.70;;
80111;SDS011;69421;51.062;3.728;2024-03-08T16:58:49;14.40;;;9.25;;
80111;SDS011;69421;51.062;3.728;2024-03-08T17:01:15;15.82;;;8.93;;
80111;SDS011;69421;51.062;3.728;2024-03-08T17:03:41;17.33;;;9.85;;
80111;SDS011;69421;51.062;3.728;2024-03-08T17:06:07;15.43;;;10.25;;
80111;SDS011;69421;51.062;3.728;2024-03-08T17:08:34;13.63;;;8.32;;
80111;SDS011;69421;51.062;3.728;2024-03-08T17:11:00;14.98;;;8.18;;
80111;SDS011;69421;51.062;3.728;2024-03-08T17:13:29;14.93;;;9.25;;
80111;SDS011;69421;51.062;3.728;2024-03-08T17:15:56;14.15;;;8.90;;
80111;SDS011;69421;51.062;3.728;2024-03-08T17:18:22;16.95;;;10.10;;
80111;SDS011;69421;51.062;3.728;2024-03-08T17:20:48;13.13;;;8.18;;
80111;SDS011;69421;51.062;3.728;2024-03-08T17:23:14;17.05;;;8.90;;
80111;SDS011;69421;51.062;3.728;2024-03-08T17:25:41;18.55;;;8.48;;
80111;SDS011;69421;51.062;3.728;2024-03-08T17:28:08;13.90;;;8.50;;
80111;SDS011;69421;51.062;3.728;2024-03-08T17:30:36;14.85;;;8.63;;
80111;SDS011;69421;51.062;3.728;2024-03-08T17:33:03;17.17;;;10.07;;